createdAt,value
2023-09-17T00:00:48.231Z,79.29
2023-09-17T00:05:50.512Z,82.18
2023-09-17T00:10:53.398Z,80.17
2023-09-17T00:15:55.674Z,79.92
2023-09-17T00:20:58.318Z,80.85
2023-09-17T00:26:00.591Z,80.92
2023-09-17T00:31:02.843Z,80.73
2023-09-17T00:36:05.266Z,80.33
2023-09-17T00:41:08.463Z,84.76
2023-09-17T00:46:14.456Z,83.68
2023-09-17T00:51:17.853Z,80.18
2023-09-17T00:56:21.221Z,80.93
2023-09-17T01:01:23.686Z,81.12
2023-09-17T01:06:26.420Z,84.89
2023-09-17T01:11:28.761Z,83.69
2023-09-17T01:16:32.292Z,82.75
2023-09-17T01:21:43.210Z,83.21
2023-09-17T01:26:59.665Z,82.49
2023-09-17T01:32:02.005Z,80.48
2023-09-17T01:37:17.733Z,82.12
2023-09-17T01:42:21.429Z,81.73
2023-09-17T01:47:24.998Z,82.52
2023-09-17T01:52:33.564Z,82.97
2023-09-17T01:57:36.882Z,81.59
2023-09-17T02:02:41.495Z,84.50
2023-09-17T02:07:46.750Z,83.84
2023-09-17T02:12:49.008Z,84.05
2023-09-17T02:17:54.789Z,84.07
2023-09-17T02:22:57.222Z,84.60
2023-09-17T02:28:00.190Z,84.94
2023-09-17T02:33:02.630Z,84.50
2023-09-17T02:38:05.862Z,81.20
2023-09-17T02:43:08.321Z,84.66
2023-09-17T02:48:13.346Z,83.93
2023-09-17T02:53:15.737Z,84.95
2023-09-17T02:58:18.108Z,84.21
2023-09-17T03:03:20.568Z,80.94
2023-09-17T03:08:23.044Z,83.92
2023-09-17T03:13:26.032Z,83.46
2023-09-17T03:18:28.364Z,85.30
2023-09-17T03:23:30.773Z,84.51
2023-09-17T03:28:34.099Z,83.63
2023-09-17T03:33:37.777Z,83.63
2023-09-17T03:38:40.210Z,81.21
2023-09-17T03:43:42.637Z,82.03
2023-09-17T03:48:45.096Z,82.72
2023-09-17T03:53:47.389Z,79.77
2023-09-17T03:58:50.058Z,79.89
2023-09-17T04:03:54.156Z,83.83
2023-09-17T04:08:56.939Z,84.21
2023-09-17T04:13:59.324Z,85.04
2023-09-17T04:19:01.676Z,84.11
2023-09-17T04:24:04.800Z,82.42
2023-09-17T04:29:08.585Z,83.31
2023-09-17T04:34:12.484Z,84.37
2023-09-17T04:39:17.611Z,86.12
2023-09-17T04:44:19.892Z,86.75
2023-09-17T04:49:23.237Z,85.40
2023-09-17T04:54:25.787Z,84.86
2023-09-17T04:59:30.264Z,82.93
2023-09-17T05:04:32.831Z,85.84
2023-09-17T05:09:35.143Z,86.67
2023-09-17T05:14:37.421Z,86.27
2023-09-17T05:19:39.701Z,85.97
2023-09-17T05:24:43.235Z,86.51
2023-09-17T05:29:47.612Z,82.82
2023-09-17T05:34:49.922Z,81.22
2023-09-17T05:39:52.650Z,82.63
2023-09-17T05:44:55.199Z,82.74
2023-09-17T05:50:00.664Z,82.03
2023-09-17T05:55:07.859Z,77.62
2023-09-17T06:00:11.211Z,74.89
2023-09-17T06:05:19.927Z,76.95
2023-09-17T06:10:23.383Z,77.60
2023-09-17T06:15:26.751Z,73.24
2023-09-17T06:20:29.891Z,75.62
2023-09-17T06:25:32.944Z,76.46
2023-09-17T06:30:35.557Z,76.79
2023-09-17T06:35:37.937Z,76.90
2023-09-17T06:40:40.270Z,78.80
2023-09-17T06:45:42.750Z,78.10
2023-09-17T06:50:45.047Z,78.20
2023-09-17T06:55:47.354Z,77.88
2023-09-17T07:00:49.777Z,76.03
2023-09-17T07:05:52.132Z,76.14
2023-09-17T07:10:54.493Z,75.15
2023-09-17T07:15:56.807Z,72.83
2023-09-17T07:20:59.693Z,74.84
2023-09-17T07:26:03.896Z,75.35
2023-09-17T07:31:11.383Z,76.85
2023-09-17T07:36:14.941Z,74.55
2023-09-17T07:41:17.194Z,74.47
2023-09-17T07:46:19.588Z,73.62
2023-09-17T07:51:21.871Z,73.36
2023-09-17T07:56:25.436Z,74.74
2023-09-17T08:01:28.226Z,74.92
2023-09-17T08:06:30.737Z,73.54
2023-09-17T08:11:33.201Z,73.69
2023-09-17T08:16:36.474Z,74.05
2023-09-17T08:21:38.768Z,71.18
2023-09-17T08:26:41.161Z,71.04
2023-09-17T08:31:44.838Z,72.22
2023-09-17T08:36:47.166Z,69.35
2023-09-17T08:41:50.188Z,70.77
2023-09-17T08:46:54.262Z,68.66
2023-09-17T08:52:01.266Z,68.33
2023-09-17T08:57:05.109Z,67.36
2023-09-17T09:02:27.206Z,67.17
2023-09-17T09:07:30.604Z,66.84
2023-09-17T09:12:32.873Z,66.15
2023-09-17T09:17:35.110Z,66.44
2023-09-17T09:22:42.085Z,66.50
2023-09-17T09:27:45.008Z,63.50
2023-09-17T09:32:47.716Z,60.54
2023-09-17T09:37:50.444Z,59.31
2023-09-17T09:42:52.932Z,60.41
2023-09-17T09:47:55.714Z,61.08
2023-09-17T09:52:58.130Z,60.98
2023-09-17T09:58:01.447Z,60.33
2023-09-17T10:03:06.058Z,57.37
2023-09-17T10:08:13.473Z,56.97
2023-09-17T10:13:18.609Z,57.98
2023-09-17T10:18:21.548Z,55.25
2023-09-17T10:23:25.471Z,55.00
2023-09-17T10:28:28.348Z,55.91
2023-09-17T10:33:34.939Z,54.74
2023-09-17T10:38:40.016Z,56.77
2023-09-17T10:43:44.800Z,54.42
2023-09-17T10:48:50.281Z,55.85
2023-09-17T10:53:52.709Z,53.49
2023-09-17T10:58:55.250Z,54.22
2023-09-17T11:04:07.596Z,52.81
2023-09-17T11:09:10.020Z,52.36
2023-09-17T11:14:15.402Z,52.48
2023-09-17T11:19:22.458Z,53.62
2023-09-17T11:24:24.663Z,52.28
2023-09-17T11:29:41.726Z,52.59
2023-09-17T11:34:44.971Z,51.31
2023-09-17T11:39:52.011Z,49.01
2023-09-17T11:44:56.406Z,49.52
2023-09-17T11:49:59.168Z,49.47
2023-09-17T11:55:13.247Z,48.73
2023-09-17T12:00:29.727Z,48.42
2023-09-17T12:05:31.942Z,47.30
2023-09-17T12:10:38.357Z,47.42
2023-09-17T12:15:43.065Z,49.88
2023-09-17T12:20:58.303Z,47.75
2023-09-17T12:26:01.034Z,48.43
2023-09-17T12:31:04.051Z,46.29
2023-09-17T12:36:06.759Z,46.07
2023-09-17T12:41:10.244Z,46.82
2023-09-17T12:46:12.949Z,44.19
2023-09-17T12:51:15.291Z,41.40
2023-09-17T12:56:17.648Z,41.67
2023-09-17T13:01:19.916Z,42.67
2023-09-17T13:06:26.196Z,41.80
2023-09-17T13:11:29.416Z,41.61
2023-09-17T13:16:33.283Z,41.61
2023-09-17T13:21:35.592Z,43.44
2023-09-17T13:26:37.794Z,42.87
2023-09-17T13:31:42.147Z,42.60
2023-09-17T13:36:44.577Z,41.49
2023-09-17T13:41:46.950Z,41.66
2023-09-17T13:46:50.155Z,40.35
2023-09-17T13:51:52.745Z,39.64
2023-09-17T13:56:54.890Z,39.91
2023-09-17T14:01:57.820Z,39.37
2023-09-17T14:07:00.128Z,41.36
2023-09-17T14:12:03.131Z,40.30
2023-09-17T14:17:06.172Z,40.55
2023-09-17T14:22:08.490Z,40.29
2023-09-17T14:27:10.780Z,40.56
2023-09-17T14:32:13.376Z,41.55
2023-09-17T14:37:15.618Z,41.19
2023-09-17T14:42:18.049Z,40.75
2023-09-17T14:47:20.298Z,40.79
2023-09-17T14:52:24.113Z,40.51
2023-09-17T14:57:26.386Z,41.88
2023-09-17T15:02:29.575Z,40.96
2023-09-17T15:07:32.020Z,39.40
2023-09-17T15:12:34.207Z,40.18
2023-09-17T15:17:37.044Z,40.32
2023-09-17T15:22:39.680Z,39.29
2023-09-17T15:27:41.965Z,39.76
2023-09-17T15:32:44.278Z,40.77
2023-09-17T15:37:47.915Z,41.11
2023-09-17T15:42:50.838Z,39.54
2023-09-17T15:47:52.993Z,39.75
2023-09-17T15:52:55.301Z,39.05
2023-09-17T15:57:59.360Z,39.84
2023-09-17T16:03:01.817Z,39.96
2023-09-17T16:08:04.426Z,40.32
2023-09-17T16:13:07.431Z,39.13
2023-09-17T16:18:09.733Z,39.00
2023-09-17T16:23:12.000Z,40.06
2023-09-17T16:28:14.262Z,42.79
2023-09-17T16:33:16.626Z,44.07
2023-09-17T16:38:20.857Z,44.47
2023-09-17T16:43:23.385Z,44.17
2023-09-17T16:48:27.012Z,44.99
2023-09-17T16:53:29.258Z,44.72
2023-09-17T16:58:31.392Z,43.84
2023-09-17T17:03:33.746Z,45.63
2023-09-17T17:08:35.970Z,45.28
2023-09-17T17:13:38.616Z,48.42
2023-09-17T17:18:40.802Z,49.20
2023-09-17T17:23:43.049Z,48.35
2023-09-17T17:28:46.031Z,52.32
2023-09-17T17:33:48.181Z,49.90
2023-09-17T17:38:51.162Z,51.75
2023-09-17T17:43:55.007Z,53.22
2023-09-17T17:48:57.550Z,52.25
2023-09-17T17:53:59.886Z,53.18
2023-09-17T17:59:03.203Z,55.98
2023-09-17T18:04:05.635Z,56.55
2023-09-17T18:09:09.508Z,57.23
2023-09-17T18:14:11.897Z,57.49
2023-09-17T18:19:14.275Z,57.09
2023-09-17T18:24:17.112Z,57.61
2023-09-17T18:29:23.051Z,58.43
2023-09-17T18:34:26.978Z,56.41
2023-09-17T18:39:29.445Z,57.96
2023-09-17T18:44:31.811Z,59.93
2023-09-17T18:49:34.039Z,62.49
2023-09-17T18:54:36.270Z,61.07
2023-09-17T18:59:38.498Z,61.31
2023-09-17T19:04:41.579Z,62.72
2023-09-17T19:09:44.368Z,61.32
2023-09-17T19:14:47.658Z,62.88
2023-09-17T19:19:50.035Z,63.49
2023-09-17T19:24:52.357Z,62.91
2023-09-17T19:29:54.614Z,62.80
2023-09-17T19:34:58.348Z,65.54
2023-09-17T19:40:00.632Z,67.01
2023-09-17T19:45:02.961Z,63.30
2023-09-17T19:50:06.047Z,65.25
2023-09-17T19:55:09.223Z,65.49
2023-09-17T20:00:12.402Z,70.22
2023-09-17T20:05:14.753Z,64.89
2023-09-17T20:10:18.132Z,68.13
2023-09-17T20:15:20.331Z,67.81
2023-09-17T20:20:22.633Z,67.85
2023-09-17T20:25:24.881Z,68.97
2023-09-17T20:30:27.872Z,65.62
2023-09-17T20:35:30.331Z,70.59
2023-09-17T20:40:32.883Z,68.13
2023-09-17T20:45:35.057Z,68.09
2023-09-17T20:50:37.214Z,68.13
2023-09-17T20:55:39.620Z,67.19
2023-09-17T21:00:41.966Z,67.44
2023-09-17T21:05:50.995Z,66.06
2023-09-17T21:10:53.290Z,67.31
2023-09-17T21:15:55.654Z,67.78
2023-09-17T21:20:59.821Z,67.05
2023-09-17T21:26:03.720Z,68.80
2023-09-17T21:31:08.439Z,67.18
2023-09-17T21:36:10.896Z,66.25
2023-09-17T21:41:15.037Z,69.08
2023-09-17T21:46:17.960Z,68.67
2023-09-17T21:51:20.206Z,67.51
2023-09-17T21:56:22.481Z,70.84
2023-09-17T22:01:26.303Z,68.66
2023-09-17T22:06:28.750Z,66.72
2023-09-17T22:11:31.041Z,69.22
2023-09-17T22:16:36.602Z,69.68
2023-09-17T22:21:39.448Z,70.86
2023-09-17T22:26:41.670Z,70.84
2023-09-17T22:31:44.438Z,70.27
2023-09-17T22:36:46.763Z,72.58
2023-09-17T22:41:49.051Z,70.49
2023-09-17T22:46:51.355Z,72.00
2023-09-17T22:51:53.698Z,72.15
2023-09-17T22:56:56.048Z,71.71
2023-09-17T23:01:59.060Z,69.63
2023-09-17T23:07:01.692Z,70.04
2023-09-17T23:12:04.470Z,69.06
2023-09-17T23:17:06.727Z,73.06
2023-09-17T23:22:09.036Z,71.71
2023-09-17T23:27:11.320Z,73.54
2023-09-17T23:32:15.246Z,74.21
2023-09-17T23:37:17.724Z,74.34
2023-09-17T23:42:19.963Z,72.32
2023-09-17T23:47:22.448Z,74.97
2023-09-17T23:52:25.111Z,79.43
2023-09-17T23:57:27.278Z,81.72
